createdAt,value
2019-01-25T00:00:08.897Z,27.40
2019-01-25T00:00:53.526Z,27.40
2019-01-25T00:01:32.351Z,27.40
2019-01-25T00:02:29.869Z,27.40
2019-01-25T00:03:10.351Z,27.40
2019-01-25T00:03:50.009Z,27.40
2019-01-25T00:04:29.841Z,27.40
2019-01-25T00:05:09.262Z,27.40
2019-01-25T00:05:48.484Z,27.50
2019-01-25T00:06:27.163Z,27.50
2019-01-25T00:07:06.722Z,27.50
2019-01-25T00:07:45.342Z,27.50
2019-01-25T00:08:24.067Z,27.50
2019-01-25T00:09:02.708Z,27.50
2019-01-25T00:09:41.593Z,27.50
2019-01-25T00:10:20.338Z,27.50
2019-01-25T00:10:59.662Z,27.50
2019-01-25T00:11:39.262Z,27.50
2019-01-25T00:12:18.691Z,27.50
2019-01-25T00:12:58.365Z,27.50
2019-01-25T00:13:37.706Z,27.50
2019-01-25T00:14:17.068Z,27.50
2019-01-25T00:14:56.572Z,27.50
2019-01-25T00:15:35.268Z,27.50
2019-01-25T00:16:14.006Z,27.50
2019-01-25T00:16:52.829Z,27.60
2019-01-25T00:17:32.011Z,27.50
2019-01-25T00:18:11.303Z,27.50
2019-01-25T00:18:50.095Z,27.50
2019-01-25T00:19:29.425Z,27.60
2019-01-25T00:20:09.422Z,27.50
2019-01-25T00:20:49.118Z,27.50
2019-01-25T00:21:28.536Z,27.50
2019-01-25T00:22:08.133Z,27.50
2019-01-25T00:22:47.525Z,27.60
2019-01-25T00:23:26.972Z,27.60
2019-01-25T00:24:05.667Z,27.60
2019-01-25T00:24:44.372Z,27.60
2019-01-25T00:25:23.262Z,27.60
2019-01-25T00:26:02.346Z,27.60
2019-01-25T00:26:41.560Z,27.60
2019-01-25T00:27:21.128Z,27.60
2019-01-25T00:27:59.848Z,27.60
2019-01-25T00:28:39.201Z,27.60
2019-01-25T00:29:17.880Z,27.60
2019-01-25T00:29:56.983Z,27.60
2019-01-25T00:30:35.669Z,27.60
2019-01-25T00:31:15.023Z,27.60
2019-01-25T00:31:53.951Z,27.60
2019-01-25T00:32:33.065Z,27.60
2019-01-25T00:33:12.243Z,27.60
2019-01-25T00:33:51.593Z,27.60
2019-01-25T00:34:30.978Z,27.60
2019-01-25T00:35:10.655Z,27.60
2019-01-25T00:35:50.030Z,27.60
2019-01-25T00:36:29.215Z,27.60
2019-01-25T00:37:08.783Z,27.60
2019-01-25T00:37:48.246Z,27.60
2019-01-25T00:38:26.975Z,27.60
2019-01-25T00:39:07.012Z,27.60
2019-01-25T00:39:45.769Z,27.60
2019-01-25T00:40:25.204Z,27.60
2019-01-25T00:41:03.835Z,27.60
2019-01-25T00:41:43.308Z,27.60
2019-01-25T00:42:22.798Z,27.60
2019-01-25T00:43:02.383Z,27.60
2019-01-25T00:43:41.925Z,27.60
2019-01-25T00:44:21.363Z,27.60
2019-01-25T00:45:00.013Z,27.60
2019-01-25T00:45:38.700Z,27.70
2019-01-25T00:46:18.349Z,27.60
2019-01-25T00:47:00.312Z,27.70
2019-01-25T00:47:39.973Z,27.60
2019-01-25T00:48:19.472Z,27.70
2019-01-25T00:48:58.982Z,27.70
2019-01-25T00:49:37.782Z,27.80
2019-01-25T00:50:19.738Z,27.90
2019-01-25T00:50:58.881Z,27.90
2019-01-25T00:51:38.399Z,27.90
2019-01-25T00:52:17.089Z,27.90
2019-01-25T00:52:55.830Z,28.00
2019-01-25T00:53:35.012Z,28.00
2019-01-25T00:54:14.251Z,28.00
2019-01-25T00:54:53.138Z,28.00
2019-01-25T00:55:32.557Z,28.00
2019-01-25T00:56:12.083Z,28.00
2019-01-25T00:56:51.605Z,28.00
2019-01-25T00:57:30.823Z,28.00
2019-01-25T00:58:10.304Z,28.00
2019-01-25T00:58:49.314Z,28.00
2019-01-25T00:59:28.521Z,28.00
2019-01-25T01:00:08.420Z,28.00
2019-01-25T01:00:47.163Z,28.00
2019-01-25T01:01:27.036Z,28.00
2019-01-25T01:02:05.771Z,28.00
2019-01-25T01:02:44.477Z,28.00
2019-01-25T01:03:23.789Z,28.00
2019-01-25T01:04:03.366Z,28.00
2019-01-25T01:04:42.106Z,28.00
2019-01-25T01:05:21.712Z,27.90
2019-01-25T01:06:01.006Z,27.90
2019-01-25T01:06:40.372Z,27.90
2019-01-25T01:07:19.249Z,27.90
2019-01-25T01:07:57.976Z,27.90
2019-01-25T01:08:36.988Z,27.90
2019-01-25T01:09:16.239Z,27.90
2019-01-25T01:09:55.354Z,27.90
2019-01-25T01:10:34.806Z,27.90
2019-01-25T01:11:14.076Z,27.90
2019-01-25T01:11:53.355Z,27.90
2019-01-25T01:12:32.058Z,27.90
2019-01-25T01:13:11.490Z,27.90
2019-01-25T01:13:50.247Z,27.90
2019-01-25T01:14:29.002Z,27.90
2019-01-25T01:15:07.855Z,27.90
2019-01-25T01:15:46.854Z,27.90
2019-01-25T01:16:26.207Z,27.90
2019-01-25T01:17:05.496Z,27.90
2019-01-25T01:17:44.867Z,27.90
2019-01-25T01:18:24.003Z,27.90
2019-01-25T01:19:03.401Z,27.90
2019-01-25T01:19:42.649Z,27.90
2019-01-25T01:20:22.268Z,27.90
2019-01-25T01:21:00.954Z,27.90
2019-01-25T01:21:39.683Z,27.90
2019-01-25T01:22:18.398Z,27.90
2019-01-25T01:22:57.214Z,27.90
2019-01-25T01:23:36.020Z,27.90
2019-01-25T01:24:15.749Z,27.90
2019-01-25T01:24:55.173Z,27.90
2019-01-25T01:25:33.879Z,27.90
2019-01-25T01:26:13.356Z,27.90
2019-01-25T01:26:52.886Z,27.90
2019-01-25T01:27:32.479Z,27.90
2019-01-25T01:28:11.420Z,27.90
2019-01-25T01:28:50.097Z,27.90
2019-01-25T01:29:29.810Z,27.90
2019-01-25T01:30:09.176Z,27.90
2019-01-25T01:30:47.946Z,28.00
2019-01-25T01:31:27.157Z,28.00
2019-01-25T01:32:06.526Z,28.00
2019-01-25T01:32:45.772Z,28.00
2019-01-25T01:33:25.305Z,28.00
2019-01-25T01:34:04.632Z,28.00
2019-01-25T01:34:43.689Z,28.00
2019-01-25T01:35:22.303Z,28.00
2019-01-25T01:36:01.016Z,28.00
2019-01-25T01:36:39.896Z,28.00
2019-01-25T01:37:18.805Z,28.00
2019-01-25T01:37:58.129Z,28.00
2019-01-25T01:38:37.432Z,28.00
2019-01-25T01:39:16.800Z,28.00
2019-01-25T01:39:56.302Z,28.00
2019-01-25T01:40:35.479Z,28.00
2019-01-25T01:41:15.058Z,28.00
2019-01-25T01:41:54.471Z,28.00
2019-01-25T01:42:34.030Z,28.00
2019-01-25T01:43:12.820Z,28.00
2019-01-25T01:43:51.620Z,28.00
2019-01-25T01:44:30.261Z,28.00
2019-01-25T01:45:09.503Z,28.00
2019-01-25T01:45:48.496Z,28.00
2019-01-25T01:46:27.532Z,28.00
2019-01-25T01:47:06.796Z,28.00
2019-01-25T01:47:45.885Z,28.00
2019-01-25T01:48:25.247Z,28.00
2019-01-25T01:49:05.063Z,28.00
2019-01-25T01:49:44.615Z,28.00
2019-01-25T01:50:23.541Z,28.00
2019-01-25T01:51:02.258Z,28.00
2019-01-25T01:51:41.565Z,28.00
2019-01-25T01:52:20.365Z,28.00
2019-01-25T01:52:59.575Z,28.00
2019-01-25T01:53:38.821Z,28.00
2019-01-25T01:54:18.255Z,28.00
2019-01-25T01:54:57.573Z,28.00
2019-01-25T01:55:37.038Z,28.00
2019-01-25T01:56:16.035Z,28.00
2019-01-25T01:56:54.819Z,28.00
2019-01-25T01:57:34.294Z,28.00
2019-01-25T01:58:13.024Z,28.10
2019-01-25T01:58:51.670Z,28.10
2019-01-25T01:59:30.648Z,28.10
2019-01-25T02:00:12.758Z,28.10
2019-01-25T02:00:51.561Z,28.10
2019-01-25T02:01:30.646Z,28.10
2019-01-25T02:02:09.843Z,28.10
2019-01-25T02:02:49.394Z,28.10
2019-01-25T02:03:28.602Z,28.10
2019-01-25T02:04:07.966Z,28.10
2019-01-25T02:04:47.376Z,28.10
2019-01-25T02:05:26.685Z,28.10
2019-01-25T02:06:06.308Z,28.10
2019-01-25T02:06:45.597Z,28.10
2019-01-25T02:07:24.332Z,28.10
2019-01-25T02:08:02.995Z,28.10
2019-01-25T02:08:41.721Z,28.10
2019-01-25T02:09:20.421Z,28.10
2019-01-25T02:09:59.863Z,28.10
2019-01-25T02:10:39.230Z,28.10
2019-01-25T02:11:18.769Z,28.10
2019-01-25T02:11:58.088Z,28.10
2019-01-25T02:12:37.545Z,28.10
2019-01-25T02:13:17.006Z,28.10
2019-01-25T02:13:56.029Z,28.10
2019-01-25T02:14:35.625Z,28.10
2019-01-25T02:15:16.555Z,28.20
2019-01-25T02:15:55.766Z,28.20
2019-01-25T02:16:34.473Z,28.20
2019-01-25T02:17:13.336Z,28.20
2019-01-25T02:17:52.275Z,28.20
2019-01-25T02:18:31.520Z,28.20
2019-01-25T02:19:11.041Z,28.20
2019-01-25T02:19:49.760Z,28.20
2019-01-25T02:20:35.047Z,28.20
2019-01-25T02:21:14.396Z,28.20
2019-01-25T02:21:53.278Z,28.20
2019-01-25T02:22:32.192Z,28.20
2019-01-25T02:23:11.270Z,28.20
2019-01-25T02:23:50.723Z,28.20
2019-01-25T02:24:30.198Z,28.20
2019-01-25T02:25:09.822Z,28.20
2019-01-25T02:25:49.205Z,28.20
2019-01-25T02:26:28.494Z,28.20
2019-01-25T02:27:08.010Z,28.20
2019-01-25T02:27:47.455Z,28.20
2019-01-25T02:28:26.467Z,28.20
2019-01-25T02:29:05.262Z,28.20
2019-01-25T02:29:44.058Z,28.20
2019-01-25T02:30:24.465Z,28.20
2019-01-25T02:31:03.135Z,28.20
2019-01-25T02:31:42.269Z,28.20
2019-01-25T02:32:21.077Z,28.30
2019-01-25T02:33:00.490Z,28.30
2019-01-25T02:33:39.907Z,28.30
2019-01-25T02:34:18.659Z,28.30
2019-01-25T02:34:58.048Z,28.30
2019-01-25T02:35:37.701Z,28.30
2019-01-25T02:36:16.502Z,28.30
2019-01-25T02:36:56.007Z,28.20
2019-01-25T02:37:35.552Z,28.30
2019-01-25T02:38:15.056Z,28.30
2019-01-25T02:38:54.340Z,28.30
2019-01-25T02:39:33.357Z,28.30
2019-01-25T02:40:13.400Z,28.30
2019-01-25T02:40:52.883Z,28.30
2019-01-25T02:41:32.243Z,28.30
2019-01-25T02:42:11.624Z,28.30
2019-01-25T02:42:50.909Z,28.30
2019-01-25T02:43:30.559Z,28.30
2019-01-25T02:44:09.880Z,28.30
2019-01-25T02:44:48.677Z,28.30
2019-01-25T02:45:28.147Z,28.30
2019-01-25T02:46:06.783Z,28.40
2019-01-25T02:46:45.559Z,28.30
2019-01-25T02:47:24.476Z,28.40
2019-01-25T02:48:03.697Z,28.40
2019-01-25T02:48:43.199Z,28.40
2019-01-25T02:49:22.482Z,28.40
2019-01-25T02:50:01.817Z,28.40
2019-01-25T02:50:41.072Z,28.40
2019-01-25T02:51:20.336Z,28.40
2019-01-25T02:51:59.422Z,28.40
2019-01-25T02:52:38.089Z,28.40
2019-01-25T02:53:17.269Z,28.40
2019-01-25T02:53:56.511Z,28.40
2019-01-25T02:54:35.199Z,28.40
2019-01-25T02:55:14.583Z,28.40
2019-01-25T02:55:53.636Z,28.40
2019-01-25T02:56:51.073Z,28.40
2019-01-25T02:57:30.573Z,28.40
2019-01-25T02:58:09.961Z,28.40
2019-01-25T02:58:48.985Z,28.40
2019-01-25T02:59:27.600Z,28.40
2019-01-25T03:00:07.170Z,28.40
2019-01-25T03:00:45.831Z,28.40
2019-01-25T03:01:24.705Z,28.40
2019-01-25T03:02:04.265Z,28.50
2019-01-25T03:02:43.660Z,28.50
2019-01-25T03:03:22.904Z,28.40
2019-01-25T03:04:02.458Z,28.50
2019-01-25T03:04:41.755Z,28.50
2019-01-25T03:05:21.548Z,28.50
2019-01-25T03:06:00.966Z,28.50
2019-01-25T03:06:40.323Z,28.50
2019-01-25T03:07:19.057Z,28.50
2019-01-25T03:07:57.886Z,28.50
2019-01-25T03:08:36.756Z,28.50
2019-01-25T03:09:15.954Z,28.50
2019-01-25T03:09:54.749Z,28.50
2019-01-25T03:10:34.247Z,28.60
2019-01-25T03:11:13.453Z,28.60
2019-01-25T03:11:52.217Z,28.60
2019-01-25T03:12:31.236Z,28.60
2019-01-25T03:13:10.839Z,28.70
2019-01-25T03:13:49.678Z,28.70
2019-01-25T03:14:29.138Z,28.70
2019-01-25T03:15:08.418Z,28.70
2019-01-25T03:15:47.573Z,28.70
2019-01-25T03:16:26.671Z,28.70
2019-01-25T03:17:05.816Z,28.70
2019-01-25T03:17:45.027Z,28.80
2019-01-25T03:18:24.331Z,28.80
2019-01-25T03:19:03.728Z,28.80
2019-01-25T03:19:42.954Z,28.80
2019-01-25T03:20:22.346Z,28.80
2019-01-25T03:21:01.149Z,28.80
2019-01-25T03:21:40.199Z,28.80
2019-01-25T03:22:18.879Z,28.80
2019-01-25T03:22:57.770Z,28.80
2019-01-25T03:23:37.242Z,28.80
2019-01-25T03:24:15.940Z,28.90
2019-01-25T03:24:55.112Z,28.90
2019-01-25T03:25:34.504Z,28.90
2019-01-25T03:26:13.850Z,28.90
2019-01-25T03:26:53.440Z,28.90
2019-01-25T03:27:32.837Z,28.90
2019-01-25T03:28:12.234Z,28.80
2019-01-25T03:28:51.760Z,28.90
2019-01-25T03:29:30.892Z,28.90
2019-01-25T03:30:11.973Z,28.80
2019-01-25T03:30:50.669Z,28.80
2019-01-25T03:31:29.413Z,28.80
2019-01-25T03:32:08.223Z,28.80
2019-01-25T03:32:47.002Z,28.80
2019-01-25T03:33:26.457Z,28.80
2019-01-25T03:34:05.610Z,28.80
2019-01-25T03:34:44.430Z,28.80
2019-01-25T03:35:24.556Z,28.80
2019-01-25T03:36:03.782Z,28.80
2019-01-25T03:36:43.270Z,28.80
2019-01-25T03:37:22.302Z,28.80
2019-01-25T03:38:01.098Z,28.80
2019-01-25T03:38:39.848Z,28.80
2019-01-25T03:39:18.923Z,28.80
2019-01-25T03:39:57.751Z,28.80
2019-01-25T03:40:36.576Z,28.80
2019-01-25T03:41:15.786Z,28.80
2019-01-25T03:41:55.242Z,28.80
2019-01-25T03:42:34.614Z,28.80
2019-01-25T03:43:13.409Z,28.80
2019-01-25T03:43:52.940Z,28.80
2019-01-25T03:44:31.623Z,28.80
2019-01-25T03:45:11.443Z,28.80
2019-01-25T03:45:50.110Z,28.90
2019-01-25T03:46:28.899Z,28.80
2019-01-25T03:47:08.307Z,28.90
2019-01-25T03:47:47.933Z,28.90
2019-01-25T03:48:26.904Z,28.90
2019-01-25T03:49:06.341Z,28.90
2019-01-25T03:49:45.837Z,28.90
2019-01-25T03:50:27.131Z,28.90
2019-01-25T03:51:06.314Z,28.90
2019-01-25T03:51:45.831Z,28.90
2019-01-25T03:52:25.356Z,28.90
2019-01-25T03:53:04.667Z,28.90
2019-01-25T03:53:44.001Z,28.90
2019-01-25T03:54:23.402Z,28.90
2019-01-25T03:55:02.222Z,28.90
2019-01-25T03:55:41.088Z,28.90
2019-01-25T03:56:19.969Z,28.90
2019-01-25T03:56:59.278Z,28.90
2019-01-25T03:57:38.707Z,28.90
2019-01-25T03:58:18.030Z,28.90
2019-01-25T03:58:57.655Z,28.90
2019-01-25T03:59:36.972Z,28.90
2019-01-25T04:00:18.557Z,28.90
2019-01-25T04:00:57.639Z,28.90
2019-01-25T04:01:37.309Z,28.90
2019-01-25T04:02:16.818Z,29.00
2019-01-25T04:02:56.198Z,29.00
2019-01-25T04:03:34.982Z,29.00
2019-01-25T04:04:13.690Z,29.00
2019-01-25T04:04:52.516Z,28.90
2019-01-25T04:05:31.258Z,29.00
2019-01-25T04:06:10.309Z,29.00
2019-01-25T04:06:49.750Z,29.00
2019-01-25T04:07:29.198Z,29.00
2019-01-25T04:08:07.978Z,29.00
2019-01-25T04:08:47.194Z,29.00
2019-01-25T04:09:25.922Z,29.00
2019-01-25T04:10:05.276Z,29.00
2019-01-25T04:10:44.047Z,29.00
2019-01-25T04:11:23.409Z,29.00
2019-01-25T04:12:02.134Z,29.00
2019-01-25T04:12:41.023Z,29.10
2019-01-25T04:13:20.268Z,29.00
2019-01-25T04:13:59.846Z,29.10
2019-01-25T04:14:39.189Z,29.00
2019-01-25T04:15:20.892Z,29.10
2019-01-25T04:16:00.195Z,29.10
2019-01-25T04:16:39.468Z,29.10
2019-01-25T04:17:18.858Z,29.10
2019-01-25T04:17:58.161Z,29.10
2019-01-25T04:18:36.975Z,29.10
2019-01-25T04:19:16.072Z,29.10
2019-01-25T04:19:55.569Z,29.10
2019-01-25T04:20:34.562Z,29.10
2019-01-25T04:21:13.964Z,29.10
2019-01-25T04:21:52.804Z,29.10
2019-01-25T04:22:31.718Z,29.10
2019-01-25T04:23:11.305Z,29.10
2019-01-25T04:23:50.739Z,29.10
2019-01-25T04:24:30.213Z,29.10
2019-01-25T04:25:10.805Z,29.10
2019-01-25T04:25:50.196Z,29.20
2019-01-25T04:26:29.644Z,29.20
2019-01-25T04:27:08.860Z,29.20
2019-01-25T04:27:48.400Z,29.20
2019-01-25T04:28:27.683Z,29.20
2019-01-25T04:29:07.197Z,29.20
2019-01-25T04:29:46.297Z,29.20
2019-01-25T04:30:27.191Z,29.20
2019-01-25T04:31:05.928Z,29.20
2019-01-25T04:31:44.726Z,29.20
2019-01-25T04:32:23.629Z,29.20
2019-01-25T04:33:02.794Z,29.20
2019-01-25T04:33:41.933Z,29.20
2019-01-25T04:34:21.185Z,29.20
2019-01-25T04:35:00.501Z,29.30
2019-01-25T04:35:39.813Z,29.20
2019-01-25T04:36:19.130Z,29.30
2019-01-25T04:36:58.387Z,29.30
2019-01-25T04:37:38.074Z,29.30
2019-01-25T04:38:17.395Z,29.30
2019-01-25T04:38:56.301Z,29.30
2019-01-25T04:39:36.148Z,29.20
2019-01-25T04:40:16.539Z,29.30
2019-01-25T04:40:56.250Z,29.30
2019-01-25T04:41:35.889Z,29.30
2019-01-25T04:42:15.406Z,29.30
2019-01-25T04:42:54.118Z,29.30
2019-01-25T04:43:32.910Z,29.30
2019-01-25T04:44:30.218Z,29.30
2019-01-25T04:45:10.076Z,29.30
2019-01-25T04:45:49.569Z,29.30
2019-01-25T04:46:28.367Z,29.30
2019-01-25T04:47:07.797Z,29.30
2019-01-25T04:47:46.610Z,29.40
2019-01-25T04:48:25.285Z,29.30
2019-01-25T04:49:04.295Z,29.40
2019-01-25T04:49:43.244Z,29.40
2019-01-25T04:50:24.110Z,29.40
2019-01-25T04:51:04.244Z,29.40
2019-01-25T04:51:43.800Z,29.40
2019-01-25T04:52:23.048Z,29.40
2019-01-25T04:53:02.487Z,29.40
2019-01-25T04:53:41.953Z,29.40
2019-01-25T04:54:21.381Z,29.40
2019-01-25T04:55:00.666Z,29.40
2019-01-25T04:55:40.179Z,29.40
2019-01-25T04:56:19.662Z,29.40
2019-01-25T04:56:58.421Z,29.40
2019-01-25T04:57:37.684Z,29.40
2019-01-25T04:58:18.555Z,29.40
2019-01-25T04:58:57.503Z,29.40
2019-01-25T04:59:36.306Z,29.40
2019-01-25T05:00:17.329Z,29.40
2019-01-25T05:00:56.047Z,29.40
2019-01-25T05:01:34.711Z,29.40
2019-01-25T05:02:14.318Z,29.40
2019-01-25T05:03:03.973Z,29.40
2019-01-25T05:03:44.322Z,29.50
2019-01-25T05:04:23.041Z,29.50
2019-01-25T05:05:02.610Z,29.50
2019-01-25T05:05:41.881Z,29.50
2019-01-25T05:06:21.313Z,29.50
2019-01-25T05:07:00.786Z,29.50
2019-01-25T05:07:40.306Z,29.50
2019-01-25T05:08:26.249Z,29.50
2019-01-25T05:09:05.406Z,29.50
2019-01-25T05:09:45.207Z,29.50
2019-01-25T05:10:24.695Z,29.50
2019-01-25T05:11:03.854Z,29.50
2019-01-25T05:11:43.343Z,29.50
2019-01-25T05:12:22.624Z,29.50
2019-01-25T05:13:02.065Z,29.50
2019-01-25T05:13:41.345Z,29.50
2019-01-25T05:14:20.186Z,29.50
2019-01-25T05:14:59.396Z,29.60
2019-01-25T05:15:38.140Z,29.60
2019-01-25T05:16:18.793Z,29.60
2019-01-25T05:16:57.527Z,29.60
2019-01-25T05:17:36.409Z,29.60
2019-01-25T05:18:15.707Z,29.60
2019-01-25T05:18:54.920Z,29.60
2019-01-25T05:19:36.498Z,29.60
2019-01-25T05:20:15.650Z,29.60
2019-01-25T05:20:54.995Z,29.60
2019-01-25T05:21:34.255Z,29.60
2019-01-25T05:22:13.601Z,29.60
2019-01-25T05:22:56.903Z,29.60
2019-01-25T05:23:35.931Z,29.60
2019-01-25T05:24:16.051Z,29.60
2019-01-25T05:24:55.281Z,29.60
2019-01-25T05:25:34.664Z,29.60
2019-01-25T05:26:13.854Z,29.60
2019-01-25T05:26:53.130Z,29.70
2019-01-25T05:27:32.658Z,29.70
2019-01-25T05:28:29.534Z,29.70
2019-01-25T05:29:08.439Z,29.70
2019-01-25T05:29:58.104Z,29.70
2019-01-25T05:30:37.393Z,29.70
2019-01-25T05:31:16.301Z,29.70
2019-01-25T05:31:55.498Z,29.70
2019-01-25T05:32:34.842Z,29.70
2019-01-25T05:33:14.375Z,29.70
2019-01-25T05:33:59.157Z,29.70
2019-01-25T05:34:38.437Z,29.70
2019-01-25T05:35:37.594Z,29.70
2019-01-25T05:36:16.300Z,29.70
2019-01-25T05:36:55.516Z,29.70
2019-01-25T05:37:35.128Z,29.70
2019-01-25T05:38:14.567Z,29.70
2019-01-25T05:38:54.205Z,29.70
2019-01-25T05:39:32.982Z,29.70
2019-01-25T05:40:11.800Z,29.80
2019-01-25T05:40:50.601Z,29.80
2019-01-25T05:41:29.269Z,29.80
2019-01-25T05:42:08.219Z,29.80
2019-01-25T05:42:47.480Z,29.80
2019-01-25T05:43:26.843Z,29.80
2019-01-25T05:44:06.034Z,29.80
2019-01-25T05:44:45.758Z,29.80
2019-01-25T05:45:25.117Z,29.80
2019-01-25T05:46:03.749Z,29.80
2019-01-25T05:46:43.316Z,29.80
2019-01-25T05:47:22.235Z,29.80
2019-01-25T05:48:01.602Z,29.80
2019-01-25T05:48:40.304Z,29.80
2019-01-25T05:49:19.194Z,29.80
2019-01-25T05:49:58.315Z,29.80
2019-01-25T05:50:37.656Z,29.80
2019-01-25T05:51:17.139Z,29.80
2019-01-25T05:51:56.613Z,29.80
2019-01-25T05:52:36.028Z,29.80
2019-01-25T05:53:15.314Z,29.90
2019-01-25T05:53:55.678Z,29.90
2019-01-25T05:54:35.264Z,29.90
2019-01-25T05:55:18.451Z,29.90
2019-01-25T05:55:57.731Z,29.90
2019-01-25T05:56:36.489Z,29.90
2019-01-25T05:57:16.039Z,29.90
2019-01-25T05:57:57.016Z,29.90
2019-01-25T05:58:35.753Z,29.90
2019-01-25T05:59:15.356Z,29.90
2019-01-25T05:59:54.905Z,29.90
2019-01-25T06:00:37.605Z,29.90
2019-01-25T06:01:16.820Z,29.90
2019-01-25T06:01:56.489Z,29.90
2019-01-25T06:02:35.872Z,29.90
2019-01-25T06:03:16.686Z,29.90
2019-01-25T06:03:56.002Z,29.90
2019-01-25T06:04:39.743Z,29.90
2019-01-25T06:05:19.108Z,29.90
2019-01-25T06:06:03.200Z,29.90
2019-01-25T06:06:42.652Z,29.90
2019-01-25T06:07:21.979Z,29.90
2019-01-25T06:08:00.717Z,30.00
2019-01-25T06:08:44.041Z,29.90
2019-01-25T06:09:25.323Z,30.00
2019-01-25T06:10:04.164Z,30.00
2019-01-25T06:10:42.877Z,30.00
2019-01-25T06:11:21.791Z,30.00
2019-01-25T06:12:00.706Z,30.00
2019-01-25T06:12:40.064Z,30.00
2019-01-25T06:13:19.587Z,30.00
2019-01-25T06:13:58.991Z,30.00
2019-01-25T06:14:38.147Z,30.00
2019-01-25T06:15:16.556Z,30.00
2019-01-25T06:15:55.948Z,30.00
2019-01-25T06:16:34.630Z,30.00
2019-01-25T06:17:13.412Z,30.00
2019-01-25T06:17:52.146Z,30.00
2019-01-25T06:18:31.293Z,30.00
2019-01-25T06:19:10.618Z,30.00
2019-01-25T06:19:49.796Z,30.00
2019-01-25T06:20:29.123Z,30.10
2019-01-25T06:21:08.515Z,30.00
2019-01-25T06:21:47.838Z,30.00
2019-01-25T06:22:27.110Z,30.10
2019-01-25T06:23:06.582Z,30.10
2019-01-25T06:23:45.499Z,30.10
2019-01-25T06:24:24.248Z,30.10
2019-01-25T06:25:03.046Z,30.10
2019-01-25T06:25:41.792Z,30.10
2019-01-25T06:26:21.252Z,30.10
2019-01-25T06:27:00.487Z,30.10
2019-01-25T06:27:42.142Z,30.10
2019-01-25T06:28:21.382Z,30.10
2019-01-25T06:29:00.631Z,30.10
2019-01-25T06:29:39.869Z,30.10
2019-01-25T06:30:19.390Z,30.10
2019-01-25T06:30:58.731Z,30.10
2019-01-25T06:31:38.075Z,30.10
2019-01-25T06:32:17.670Z,30.10
2019-01-25T06:32:56.880Z,30.10
2019-01-25T06:33:36.379Z,30.10
2019-01-25T06:34:15.184Z,30.10
2019-01-25T06:34:54.635Z,30.10
2019-01-25T06:35:34.249Z,30.10
2019-01-25T06:36:13.108Z,30.10
2019-01-25T06:36:52.062Z,30.20
2019-01-25T06:37:31.521Z,30.10
2019-01-25T06:38:10.175Z,30.10
2019-01-25T06:38:49.676Z,30.20
2019-01-25T06:39:29.046Z,30.10
2019-01-25T06:40:08.999Z,30.20
2019-01-25T06:40:48.310Z,30.20
2019-01-25T06:41:26.914Z,30.20
2019-01-25T06:42:06.145Z,30.20
2019-01-25T06:42:45.072Z,30.20
2019-01-25T06:43:24.131Z,30.20
2019-01-25T06:44:03.120Z,30.20
2019-01-25T06:44:42.473Z,30.20
2019-01-25T06:45:21.770Z,30.20
2019-01-25T06:46:01.308Z,30.20
2019-01-25T06:46:40.839Z,30.20
2019-01-25T06:47:20.190Z,30.20
2019-01-25T06:47:59.818Z,30.20
2019-01-25T06:48:38.571Z,30.20
2019-01-25T06:49:17.959Z,30.20
2019-01-25T06:49:57.442Z,30.20
2019-01-25T06:50:36.560Z,30.20
2019-01-25T06:51:15.500Z,30.20
2019-01-25T06:51:54.260Z,30.20
2019-01-25T06:52:33.398Z,30.20
2019-01-25T06:53:12.758Z,30.20
2019-01-25T06:53:52.201Z,30.20
2019-01-25T06:54:31.912Z,30.30
2019-01-25T06:55:11.273Z,30.30
2019-01-25T06:55:50.889Z,30.20
2019-01-25T06:56:30.272Z,30.20
2019-01-25T06:57:21.358Z,30.30
2019-01-25T06:58:18.662Z,30.30
2019-01-25T06:59:16.239Z,30.30
2019-01-25T06:59:55.431Z,30.30
2019-01-25T07:00:35.998Z,30.30
2019-01-25T07:01:23.154Z,30.30
2019-01-25T07:02:14.924Z,30.30
2019-01-25T07:02:54.055Z,30.30
2019-01-25T07:03:33.602Z,30.30
2019-01-25T07:04:12.823Z,30.30
2019-01-25T07:04:52.360Z,30.30
2019-01-25T07:05:31.566Z,30.30
2019-01-25T07:06:11.092Z,30.30
2019-01-25T07:06:49.955Z,30.30
2019-01-25T07:07:34.468Z,30.30
2019-01-25T07:08:18.589Z,30.30
2019-01-25T07:08:57.336Z,30.30
2019-01-25T07:09:35.950Z,30.30
2019-01-25T07:10:18.357Z,30.30
2019-01-25T07:10:57.688Z,30.30
2019-01-25T07:11:42.042Z,30.30
2019-01-25T07:12:16.698Z,30.30
2019-01-25T07:12:56.890Z,30.30
2019-01-25T07:13:35.679Z,30.30
2019-01-25T07:14:15.776Z,30.30
2019-01-25T07:14:54.809Z,30.30
2019-01-25T07:15:34.308Z,30.40
2019-01-25T07:16:13.370Z,30.30
2019-01-25T07:16:52.615Z,30.30
2019-01-25T07:17:31.967Z,30.40
2019-01-25T07:18:10.737Z,30.30
2019-01-25T07:18:49.406Z,30.40
2019-01-25T07:19:28.234Z,30.30
2019-01-25T07:20:07.325Z,30.30
2019-01-25T07:20:46.475Z,30.30
2019-01-25T07:21:25.591Z,30.30
2019-01-25T07:22:05.223Z,30.40
2019-01-25T07:22:44.638Z,30.40
2019-01-25T07:23:23.856Z,30.40
2019-01-25T07:24:02.869Z,30.40
2019-01-25T07:24:42.288Z,30.40
2019-01-25T07:25:21.394Z,30.40
2019-01-25T07:26:00.183Z,30.40
2019-01-25T07:26:38.907Z,30.40
2019-01-25T07:27:17.648Z,30.40
2019-01-25T07:27:56.624Z,30.40
2019-01-25T07:28:35.908Z,30.40
2019-01-25T07:29:15.373Z,30.40
2019-01-25T07:29:54.749Z,30.40
2019-01-25T07:30:34.020Z,30.40
2019-01-25T07:31:13.218Z,30.40
2019-01-25T07:31:52.691Z,30.40
2019-01-25T07:32:32.025Z,30.40
2019-01-25T07:33:10.922Z,30.40
2019-01-25T07:33:49.736Z,30.40
2019-01-25T07:34:28.601Z,30.50
2019-01-25T07:35:07.971Z,30.50
2019-01-25T07:35:46.982Z,30.40
2019-01-25T07:36:26.530Z,30.40
2019-01-25T07:37:05.797Z,30.50
2019-01-25T07:37:45.297Z,30.40
2019-01-25T07:38:25.079Z,30.40
2019-01-25T07:39:05.807Z,30.40
2019-01-25T07:39:45.228Z,30.50
2019-01-25T07:40:24.558Z,30.50
2019-01-25T07:41:03.835Z,30.40
2019-01-25T07:41:43.126Z,30.40
2019-01-25T07:42:23.207Z,30.50
2019-01-25T07:43:01.991Z,30.50
2019-01-25T07:43:40.743Z,30.50
2019-01-25T07:44:20.032Z,30.50
2019-01-25T07:44:58.886Z,30.50
2019-01-25T07:45:38.211Z,30.50
2019-01-25T07:46:16.962Z,30.50
2019-01-25T07:46:55.993Z,30.50
2019-01-25T07:47:35.725Z,30.50
2019-01-25T07:48:15.292Z,30.50
2019-01-25T07:48:54.832Z,30.50
2019-01-25T07:49:34.336Z,30.50
2019-01-25T07:50:13.526Z,30.50
2019-01-25T07:50:52.318Z,30.50
2019-01-25T07:51:31.222Z,30.50
2019-01-25T07:52:10.050Z,30.50
2019-01-25T07:52:48.751Z,30.50
2019-01-25T07:53:28.249Z,30.50
2019-01-25T07:54:07.334Z,30.50
2019-01-25T07:54:47.070Z,30.60
2019-01-25T07:55:26.491Z,30.50
2019-01-25T07:56:05.533Z,30.50
2019-01-25T07:56:45.360Z,30.60
2019-01-25T07:57:24.126Z,30.50
2019-01-25T07:58:03.788Z,30.50
2019-01-25T07:58:42.955Z,30.50
2019-01-25T07:59:21.707Z,30.50
2019-01-25T08:00:01.224Z,30.60
2019-01-25T08:00:40.246Z,30.50
2019-01-25T08:01:19.240Z,30.60
2019-01-25T08:01:58.651Z,30.60
2019-01-25T08:02:38.157Z,30.50
2019-01-25T08:03:17.491Z,30.50
2019-01-25T08:03:56.907Z,30.50
2019-01-25T08:04:35.653Z,30.60
2019-01-25T08:05:15.369Z,30.60
2019-01-25T08:05:54.704Z,30.60
2019-01-25T08:06:34.499Z,30.60
2019-01-25T08:07:13.189Z,30.60
2019-01-25T08:07:51.988Z,30.60
2019-01-25T08:08:30.729Z,30.60
2019-01-25T08:09:12.290Z,30.60
2019-01-25T08:09:51.125Z,30.60
2019-01-25T08:10:30.145Z,30.60
2019-01-25T08:11:09.477Z,30.60
2019-01-25T08:11:48.956Z,30.60
2019-01-25T08:12:28.257Z,30.60
2019-01-25T08:13:07.471Z,30.60
2019-01-25T08:13:46.985Z,30.70
2019-01-25T08:14:26.226Z,30.60
2019-01-25T08:15:05.904Z,30.70
2019-01-25T08:15:45.299Z,30.70
2019-01-25T08:16:24.767Z,30.70
2019-01-25T08:17:03.976Z,30.70
2019-01-25T08:17:43.097Z,30.70
2019-01-25T08:18:21.823Z,30.70
2019-01-25T08:19:00.599Z,30.70
2019-01-25T08:19:39.843Z,30.80
2019-01-25T08:20:18.730Z,30.70
2019-01-25T08:20:57.968Z,30.70
2019-01-25T08:21:37.452Z,30.70
2019-01-25T08:22:16.999Z,30.80
2019-01-25T08:22:56.426Z,30.70
2019-01-25T08:23:35.786Z,30.70
2019-01-25T08:24:15.276Z,30.70
2019-01-25T08:24:53.991Z,30.80
2019-01-25T08:25:32.695Z,30.70
2019-01-25T08:26:11.619Z,30.80
2019-01-25T08:26:50.750Z,30.80
2019-01-25T08:27:29.548Z,30.80
2019-01-25T08:28:08.845Z,30.80
2019-01-25T08:28:48.585Z,30.80
2019-01-25T08:29:28.409Z,30.80